Latest Weather Observations for Green Cape

IDN60801

Issued at 12:02 pm EST Wednesday 5 August 2015 (issued every 30 minutes, with the page automatically refreshed every 10 minutes)

About weather observations | Map of weather stations | Latest weather observations for NSW | Other Formats
Station Details ID: 069137 Name: GREEN CAPE AWS Lat: -37.26 Lon: 150.05 Height: 19.4 m
Data from the previous 72 hours. | See also: Recent months at Green Cape
Date/Time
EST
Temp
°C
App
Temp
°C
Dew
Point
Rel
Hum
%
Delta-T
°C
Wind Press
QNH
hPa
Press
MSL
hPa
Rain
since 9 am
mm
Dir
 
Spd
km/h
Gust
km/h
Spd
kts
Gust
kts
05/12:00pm 11.3 1.8 5.0 65 2.9 W 44 56 24 30 1008.4 1008.4 0.0
05/11:30am 10.9 -0.1 4.8 66 2.8 WSW 52 67 28 36 1008.3 1008.3 0.0
05/11:00am 10.5 1.0 4.9 68 2.5 WSW 44 54 24 29 1008.7 1008.7 0.0
05/10:30am 11.2 2.5 4.2 62 3.1 SW 39 48 21 26 1008.9 1008.9 0.0
05/10:22am 11.1 4.2 2.4 55 3.7 SW 28 43 15 23 1008.9 1008.9 0.0
05/10:00am 11.3 7.0 3.3 58 3.5 W 15 19 8 10 1009.0 1009.0 0.0
05/09:30am 11.2 7.9 2.2 54 3.9 WNW 9 15 5 8 1008.7 1008.7 0.0
05/09:00am 10.5 7.5 1.9 55 3.6 NNW 7 13 4 7 1008.5 1008.5 0.0
05/08:30am 9.7 5.4 0.9 54 3.6 NNW 13 17 7 9 1008.2 1008.2 0.0
05/08:00am 9.4 4.3 0.6 54 3.6 NNW 17 22 9 12 1008.3 1008.3 0.0
05/07:30am 9.0 4.9 -0.1 53 3.6 NNW 11 15 6 8 1008.2 1008.2 0.0
05/07:00am 9.0 4.2 -0.1 53 3.6 NNW 15 20 8 11 1008.1 1008.1 0.0
05/06:30am 8.8 3.9 -0.2 53 3.6 NNW 15 20 8 11 1008.3 1008.3 0.0
05/06:00am 8.3 2.6 -0.4 54 3.4 NNW 19 26 10 14 1008.2 1008.2 0.0
05/05:30am 8.0 3.1 -0.5 55 3.3 NNW 15 24 8 13 1008.3 1008.3 0.0
05/05:00am 7.9 2.6 -0.3 56 3.2 N 17 28 9 15 1008.5 1008.5 0.0
05/04:30am 7.8 2.3 0.5 60 2.9 N 19 24 10 13 1008.6 1008.6 0.0
05/04:00am 7.2 2.6 -1.2 55 3.2 NNW 13 19 7 10 1009.0 1009.0 0.0
05/03:30am 7.7 3.6 0.0 58 3.0 N 11 17 6 9 1009.6 1009.6 0.0
05/03:00am 7.5 1.8 0.5 61 2.8 N 20 28 11 15 1009.8 1009.8 0.0
05/02:30am 6.8 2.0 0.5 64 2.5 N 15 20 8 11 1010.9 1010.9 0.0
05/02:00am 6.0 2.5 -1.2 60 2.7 N 7 9 4 5 1011.6 1011.6 0.0
05/01:30am 6.2 1.6 -1.0 60 2.7 WNW 13 19 7 10 1012.2 1012.2 0.0
05/01:00am 6.5 2.1 0.4 65 2.4 WNW 13 17 7 9 1012.6 1012.6 0.0
05/12:30am 6.4 0.7 0.3 65 2.4 WNW 20 26 11 14 1013.0 1013.0 0.0
05/12:00am 6.4 1.1 1.9 73 1.8 WNW 19 28 10 15 1013.6 1013.6 0.0
 
Date/Time
EST
Temp
°C
App
Temp
°C
Dew
Point
Rel
Hum
%
Delta-T
°C
Wind Press
QNH
hPa
Press
MSL
hPa
Rain
since 9 am
mm
Dir
 
Spd
km/h
Gust
km/h
Spd
kts
Gust
kts
04/11:30pm 6.6 1.0 1.1 68 2.2 W 20 28 11 15 1013.9 1013.9 0.0
04/11:00pm 6.7 0.1 2.2 73 1.8 W 26 30 14 16 1014.2 1014.2 0.0
04/10:30pm 7.2 -0.1 2.5 72 1.9 W 30 35 16 19 1014.5 1014.5 0.0
04/10:00pm 7.4 3.8 3.1 74 1.8 W 11 20 6 11 1014.8 1014.8 0.0
04/09:30pm 7.3 2.9 0.5 62 2.7 NW 13 17 7 9 1014.9 1014.9 0.0
04/09:00pm 7.4 3.4 0.4 61 2.8 NW 11 17 6 9 1015.5 1015.5 0.0
04/08:30pm 7.5 3.5 0.5 61 2.8 NW 11 19 6 10 1015.8 1015.8 0.0
04/08:00pm 8.0 2.9 0.5 59 3.0 NNW 17 22 9 12 1015.8 1015.8 0.0
04/07:30pm 8.5 3.8 1.0 59 3.0 NNW 15 19 8 10 1016.1 1016.1 0.0
04/07:00pm 9.0 5.0 0.5 55 3.4 NNW 11 13 6 7 1016.3 1016.3 0.0
04/06:30pm 8.9 4.5 0.4 55 3.4 NNW 13 15 7 8 1016.5 1016.5 0.0
04/06:00pm 9.7 5.9 1.6 57 3.4 N 11 17 6 9 1016.6 1016.6 0.0
04/05:30pm 9.6 5.5 2.0 59 3.2 N 13 17 7 9 1016.8 1016.8 0.0
04/05:00pm 10.1 6.3 1.7 56 3.5 NNE 11 17 6 9 1016.7 1016.7 0.0
04/04:30pm 10.7 6.9 1.5 53 3.9 NNE 11 15 6 8 1016.8 1016.8 0.0
04/04:00pm 11.2 7.5 2.2 54 3.8 NNE 11 15 6 8 1017.1 1017.1 0.0
04/03:30pm 12.1 8.1 2.6 52 4.1 NNE 13 17 7 9 1017.2 1017.2 0.0
04/03:00pm 11.9 7.5 2.6 53 4.0 NNE 15 19 8 10 1017.4 1017.4 0.0
04/02:30pm 11.5 9.1 0.0 45 4.7 NNE 2 4 1 2 1017.7 1017.7 0.0
04/02:00pm 10.9 7.8 0.0 47 4.4 SW 6 9 3 5 1018.1 1018.1 0.0
04/01:30pm 12.0 8.5 1.1 47 4.6 WSW 9 17 5 9 1018.5 1018.5 0.0
04/01:00pm 12.2 8.0 1.8 49 4.4 W 13 17 7 9 1019.0 1019.0 0.0
04/12:30pm 11.5 5.9 1.5 50 4.2 WSW 20 24 11 13 1019.5 1019.5 0.0
04/12:00pm 11.0 5.0 1.0 50 4.1 WSW 22 30 12 16 1019.9 1019.9 0.0
04/11:30am 10.5 4.5 1.3 53 3.8 W 22 28 12 15 1020.4 1020.4 0.0
04/11:00am 10.0 3.3 1.4 55 3.6 W 26 33 14 18 1021.1 1021.1 0.0
04/10:30am 9.3 3.9 1.5 58 3.2 W 19 22 10 12 1021.5 1021.5 0.0
04/10:00am 8.4 3.4 1.3 61 2.9 W 17 20 9 11 1021.8 1021.8 0.0
04/09:30am 7.6 1.2 1.0 63 2.6 W 24 28 13 15 1021.9 1021.9 0.0
04/09:00am 6.9 -0.3 0.6 64 2.5 W 28 35 15 19 1021.9 1021.9 0.0
04/08:30am 6.3 0.2 0.4 66 2.3 W 22 30 12 16 1021.9 1021.9 0.0
04/08:00am 6.0 -0.8 0.8 69 2.0 W 26 32 14 17 1021.9 1021.9 0.0
04/07:30am 5.4 -1.1 0.4 70 1.9 WNW 24 33 13 18 1021.7 1021.7 0.0
04/07:00am 5.3 -0.3 1.1 74 1.6 WNW 20 30 11 16 1021.6 1021.6 0.0
04/06:30am 6.0 -1.5 1.5 73 1.8 W 30 33 16 18 1021.5 1021.5 0.0
04/06:00am 6.2 -2.2 1.7 73 1.8 W 35 39 19 21 1021.3 1021.3 0.0
04/05:30am 6.3 -1.1 1.6 72 1.9 WNW 30 37 16 20 1021.1 1021.1 0.0
04/05:00am 6.4 -1.0 1.9 73 1.8 W 30 35 16 19 1021.0 1021.0 0.0
04/04:30am 6.2 -0.9 1.3 71 2.0 W 28 35 15 19 1020.8 1020.8 0.0
04/04:00am 6.2 0.2 1.3 71 1.9 WNW 22 32 12 17 1020.8 1020.8 0.0
04/03:30am 6.0 0.0 0.8 69 2.0 WNW 22 26 12 14 1020.7 1020.7 0.0
04/03:00am 6.2 0.2 1.1 70 2.0 W 22 30 12 16 1020.9 1020.9 0.0
04/02:30am 6.4 -1.5 1.3 70 2.0 W 32 35 17 19 1020.8 1020.8 0.0
04/02:00am 6.5 -1.3 1.4 70 2.0 W 32 41 17 22 1020.8 1020.8 0.0
04/01:30am 6.6 -0.9 1.5 70 2.1 W 30 37 16 20 1021.2 1021.2 0.0
04/01:00am 6.8 -1.2 1.5 69 2.1 WNW 33 43 18 23 1021.0 1021.0 0.0
04/12:48am 6.9 -0.5 1.6 69 2.1 W 30 48 16 26 1021.1 1021.1 0.0
04/12:30am 7.5 -1.5 2.2 69 2.2 W 39 44 21 24 1020.9 1020.9 0.0
04/12:00am 7.6 -1.5 2.1 68 2.3 W 39 48 21 26 1020.9 1020.9 0.0
 
Date/Time
EST
Temp
°C
App
Temp
°C
Dew
Point
Rel
Hum
%
Delta-T
°C
Wind Press
QNH
hPa
Press
MSL
hPa
Rain
since 9 am
mm
Dir
 
Spd
km/h
Gust
km/h
Spd
kts
Gust
kts
03/11:30pm 7.5 -1.5 2.4 70 2.1 W 39 46 21 25 1020.7 1020.7 0.0
03/11:00pm 7.5 -1.6 1.8 67 2.3 W 39 52 21 28 1020.7 1020.7 0.0
03/10:30pm 7.6 -1.5 1.7 66 2.4 WSW 39 52 21 28 1020.6 1020.6 0.0
03/10:00pm 7.7 -2.1 2.4 69 2.2 W 43 57 23 31 1020.3 1020.3 0.0
03/09:30pm 7.7 -1.7 2.4 69 2.2 WSW 41 52 22 28 1019.9 1019.9 0.0
03/09:00pm 7.7 -1.7 2.6 70 2.1 WSW 41 52 22 28 1020.2 1020.2 0.0
03/08:30pm 8.0 -3.1 2.7 69 2.2 WSW 50 61 27 33 1019.3 1019.3 0.0
03/08:12pm 7.8 -2.5 2.5 69 2.2 WSW 46 65 25 35 1019.3 1019.3 0.0
03/08:00pm 7.8 -3.7 2.1 67 2.3 WSW 52 63 28 34 1019.2 1019.2 0.0
03/07:30pm 8.3 -2.4 2.5 67 2.4 WSW 48 59 26 32 1018.8 1018.8 0.0
03/07:00pm 8.0 -2.0 2.0 66 2.5 WSW 44 56 24 30 1018.4 1018.4 0.0
03/06:30pm 7.7 -1.7 2.4 69 2.2 WSW 41 56 22 30 1018.5 1018.5 0.0
03/06:22pm 8.1 -0.9 2.4 67 2.4 WSW 39 56 21 30 1018.4 1018.4 0.0
03/06:00pm 8.0 1.9 2.9 70 2.1 WSW 24 35 13 19 1018.0 1018.0 0.0
03/05:30pm 7.8 1.4 3.3 73 1.9 WSW 26 33 14 18 1017.7 1017.7 0.0
03/05:05pm 8.0 -2.1 3.5 73 1.9 SW 46 65 25 35 1017.0 1017.0 0.0
03/05:00pm 8.4 -2.2 3.3 70 2.2 SW 48 65 26 35 1016.9 1016.9 0.0
03/04:48pm 8.9 -0.3 3.5 69 2.3 SW 41 57 22 31 1016.5 1016.5 0.0
03/04:41pm 9.1 -0.6 3.1 66 2.6 SW 43 57 23 31 1015.9 1015.9 0.0
03/04:30pm 9.4 -0.9 2.9 64 2.8 WSW 46 61 25 33 1015.9 1015.9 0.0
03/04:00pm 9.5 -3.5 3.7 67 2.5 SW 61 72 33 39 1014.9 1014.9 0.0
03/03:31pm 9.4 -4.7 3.6 67 2.5 SW 67 85 36 46 1013.9 1013.9 0.0
03/03:30pm 9.3 -5.3 3.3 66 2.6 SW 69 85 37 46 1013.9 1013.9 0.0
03/03:00pm 9.6 -3.9 2.7 62 2.9 SW 63 83 34 45 1013.4 1013.4 0.0
03/02:30pm 9.0 -2.4 3.0 66 2.6 WSW 52 72 28 39 1013.7 1013.7 0.0
03/02:01pm 9.3 -2.9 3.5 67 2.5 WSW 57 76 31 41 1013.2 1013.2 0.0
03/02:00pm 9.3 -3.0 3.3 66 2.6 WSW 57 74 31 40 1013.3 1013.3 0.0
03/01:37pm 9.2 -2.1 3.4 67 2.5 WSW 52 70 28 38 1012.7 1012.7 0.0
03/01:30pm 9.1 -2.3 3.1 66 2.6 WSW 52 67 28 36 1013.0 1013.0 0.0
03/01:00pm 9.3 -2.8 3.3 66 2.6 WSW 56 74 30 40 1012.8 1012.8 0.0
03/12:33pm 8.5 -3.4 4.3 75 1.8 SW 56 76 30 41 1012.7 1012.7 0.0
03/12:30pm 8.3 -4.2 4.3 76 1.7 SW 59 76 32 41 1012.7 1012.7 0.0
03/12:00pm 9.1 -4.1 4.5 73 2.0 WSW 63 78 34 42 1012.3 1012.3 0.0
03/11:30am 8.5 -1.7 5.1 79 1.5 WSW 48 61 26 33 1012.6 1012.6 0.0
03/11:17am 8.7 -1.8 5.6 81 1.4 WSW 50 61 27 33 1012.5 1012.5 0.0
03/11:00am 9.2 -3.3 5.8 79 1.6 WSW 61 76 33 41 1012.4 1012.4 0.0
03/10:30am 10.4 -1.4 5.8 73 2.1 SW 57 69 31 37 1011.2 1011.2 0.0
03/10:22am 10.4 -0.1 5.6 72 2.2 SW 50 65 27 35 1011.1 1011.1 0.0
03/10:00am 11.1 3.2 6.0 71 2.4 SW 37 46 20 25 1010.8 1010.8 0.0
03/09:30am 12.4 5.0 4.9 60 3.4 SW 33 43 18 23 1010.0 1010.0 0.0
03/09:00am 13.9 8.8 2.8 47 4.9 WNW 19 32 10 17 1009.6 1009.6 0.0
03/08:30am 13.0 9.0 3.1 51 4.4 NNW 13 20 7 11 1009.5 1009.5 0.0
03/08:00am 12.8 7.4 2.4 49 4.5 NW 20 33 11 18 1009.1 1009.1 0.0
03/07:30am 9.4 7.1 4.6 72 2.1 SW 6 9 3 5 1008.7 1008.7 0.0
03/07:00am 8.6 5.5 3.6 71 2.2 N 9 13 5 7 1008.5 1008.5 0.0
03/06:30am 7.8 5.1 3.7 75 1.8 WNW 7 9 4 5 1008.3 1008.3 0.0
03/06:00am 8.4 5.0 4.0 74 1.9 WSW 11 15 6 8 1008.4 1008.4 0.0
03/05:30am 8.6 5.6 2.0 63 2.7 WNW 7 11 4 6 1008.2 1008.2 0.0
03/05:00am 9.6 5.8 4.0 68 2.5 W 13 15 7 8 1008.2 1008.2 0.0
03/04:30am 9.7 5.5 3.7 66 2.6 SW 15 20 8 11 1008.0 1008.0 0.0
03/04:00am 10.2 4.8 1.3 54 3.7 N 19 24 10 13 1007.8 1007.8 0.0
03/03:30am 10.1 5.0 0.7 52 3.8 N 17 24 9 13 1007.7 1007.7 0.0
03/03:00am 9.8 5.1 0.9 54 3.7 N 15 19 8 10 1008.1 1008.1 0.0
03/02:30am 9.6 4.4 0.2 52 3.8 NNW 17 20 9 11 1008.4 1008.4 0.0
03/02:00am 10.1 5.2 1.7 56 3.5 N 17 22 9 12 1008.4 1008.4 0.0
03/01:30am 9.1 4.8 1.3 58 3.2 N 13 15 7 8 1008.8 1008.8 0.0
03/01:00am 9.5 5.6 0.9 55 3.5 N 11 15 6 8 1009.1 1009.1 0.0
03/12:30am 10.4 6.0 2.7 59 3.3 N 15 20 8 11 1009.4 1009.4 0.0
03/12:00am 11.5 5.5 3.3 57 3.6 N 24 30 13 16 1009.5 1009.5 0.0
 
Date/Time
EST
Temp
°C
App
Temp
°C
Dew
Point
Rel
Hum
%
Delta-T
°C
Wind Press
QNH
hPa
Press
MSL
hPa
Rain
since 9 am
mm
Dir
 
Spd
km/h
Gust
km/h
Spd
kts
Gust
kts
02/11:30pm 11.0 6.5 2.3 55 3.7 N 15 20 8 11 1010.0 1010.0 0.0
02/11:00pm 11.1 6.0 0.8 49 4.3 NNW 17 22 9 12 1010.5 1010.5 0.0
02/10:30pm 10.8 5.8 1.1 51 4.0 NNW 17 22 9 12 1010.5 1010.5 0.0
02/10:00pm 10.7 5.8 1.8 54 3.8 NNW 17 19 9 10 1010.8 1010.8 0.0
02/09:30pm 10.4 6.6 3.9 64 2.9 NNW 13 17 7 9 1010.8 1010.8 0.0
02/09:00pm 10.3 6.6 8.1 86 1.1 NNW 17 20 9 11 1010.8 1010.8 0.0
02/08:30pm 10.4 7.2 8.3 87 1.0 NNW 15 22 8 12 1010.3 1010.3 0.0
02/08:00pm 10.3 7.8 8.1 86 1.1 NNW 11 15 6 8 1010.1 1010.1 0.0
02/07:30pm 10.2 9.0 8.1 87 1.0 NNW 4 6 2 3 1010.3 1010.3 0.0
02/07:00pm 10.4 8.6 7.8 84 1.3 WNW 7 9 4 5 1009.8 1009.8 0.0
02/06:30pm 10.6 8.9 7.5 81 1.5 WNW 6 7 3 4 1009.2 1009.2 0.0
02/06:00pm 10.9 9.7 8.0 82 1.4 W 4 9 2 5 1008.5 1008.5 0.0
02/05:30pm 11.1 8.2 8.1 82 1.5 S 13 17 7 9 1008.5 1008.5 0.0
02/05:00pm 11.4 5.0 8.6 83 1.4 S 32 35 17 19 1008.0 1008.0 0.0
02/04:30pm 11.6 4.6 8.6 82 1.5 S 35 39 19 21 1007.9 1007.9 0.0
02/04:00pm 11.7 5.4 8.9 83 1.4 S 32 37 17 20 1007.7 1007.7 0.0
02/03:30pm 12.5 7.6 8.6 77 1.9 S 24 32 13 17 1007.6 1007.6 0.0
02/03:00pm 12.4 8.8 8.3 76 2.0 S 17 19 9 10 1007.7 1007.7 0.0
02/02:30pm 12.3 8.7 8.4 77 1.9 SSW 17 20 9 11 1007.4 1007.4 0.0
02/02:00pm 12.3 9.1 8.6 78 1.8 SSW 15 20 8 11 1007.6 1007.6 0.0
02/01:30pm 11.4 7.2 7.3 76 2.0 SW 19 24 10 13 1007.4 1007.4 0.0
02/01:00pm 11.3 5.2 8.2 81 1.5 WSW 30 32 16 17 1008.1 1008.1 0.0
02/12:30pm 11.1 5.1 8.5 84 1.3 WSW 30 33 16 18 1008.8 1008.8 0.0

Other Formats:

Comma delimited format used in spreadsheet applications
http://www.bom.gov.au/fwo/IDN60801/IDN60801.94934.axf

JavaScript Object Notation format (JSON) in row-major order
http://www.bom.gov.au/fwo/IDN60801/IDN60801.94934.json